Time;durP1;ratioP1;P1;durP2;ratioP2;P2;SDS_P1;SDS_P2;PMS_P1;PMS_P2;Temp;Humidity;BMP_temperature;BMP_pressure;BME280_temperature;BME280_humidity;BME280_pressure;Samples;Min_cycle;Max_cycle;Signal;HPM_P1;HPM_P2
2021/03/04 00:04:15;;;;;;;31.90;13.02;;;8.70;99.90;;;;;;6667802;89;20871;-77
2021/03/04 00:14:15;;;;;;;32.38;13.90;;;8.60;99.90;;;;;;6658635;89;21079;-78
2021/03/04 00:24:16;;;;;;;32.55;13.50;;;8.40;99.90;;;;;;6662476;89;20184;-78
2021/03/04 00:34:17;;;;;;;32.50;13.60;;;8.70;99.90;;;;;;6662816;89;20236;-77
2021/03/04 00:44:18;;;;;;;32.78;14.30;;;8.60;99.90;;;;;;6666186;89;20194;-79
2021/03/04 00:54:18;;;;;;;32.17;12.65;;;8.60;99.90;;;;;;6662059;89;20820;-79
2021/03/04 01:04:19;;;;;;;29.87;12.80;;;8.60;99.90;;;;;;6666650;89;20184;-77
2021/03/04 01:14:19;;;;;;;29.70;13.10;;;8.60;99.90;;;;;;6662596;89;20740;-77
2021/03/04 01:24:20;;;;;;;27.60;12.35;;;8.50;99.90;;;;;;6662954;89;20253;-77
2021/03/04 01:34:21;;;;;;;27.92;12.43;;;8.30;99.90;;;;;;6663871;89;20212;-77
2021/03/04 01:44:21;;;;;;;27.48;12.00;;;8.10;99.90;;;;;;6658963;89;20192;-77
2021/03/04 01:54:22;;;;;;;28.70;12.60;;;8.10;99.90;;;;;;6672497;89;20213;-78
2021/03/04 02:04:22;;;;;;;32.10;13.80;;;8.00;99.90;;;;;;6666626;89;20232;-77
2021/03/04 02:14:36;;;;;;;26.25;12.60;;;8.00;99.90;;;;;;6670613;89;20507;-79
2021/03/04 02:25:02;;;;;;;28.10;13.18;;;8.00;99.90;;;;;;6667378;89;22451;-77
2021/03/04 02:35:12;;;;;;;26.10;11.98;;;8.10;99.90;;;;;;6667650;89;20218;-77
2021/03/04 02:45:15;;;;;;;33.03;12.90;;;8.10;99.90;;;;;;6665262;89;20176;-77
2021/03/04 02:55:16;;;;;;;22.40;11.45;;;8.10;99.90;;;;;;6663830;89;20218;-77
2021/03/04 03:05:21;;;;;;;23.27;11.93;;;8.00;99.90;;;;;;6665702;89;20264;-77
2021/03/04 03:15:24;;;;;;;29.10;12.45;;;8.20;99.90;;;;;;6663983;89;20334;-78
2021/03/04 03:25:25;;;;;;;26.90;12.25;;;8.20;99.90;;;;;;6664511;89;20653;-79
2021/03/04 03:35:26;;;;;;;28.93;12.97;;;8.30;99.90;;;;;;6651320;89;20219;-79
2021/03/04 03:45:30;;;;;;;24.02;11.68;;;8.30;99.90;;;;;;6649046;89;20546;-76
2021/03/04 03:55:31;;;;;;;32.15;12.07;;;8.40;99.90;;;;;;6646440;89;20318;-76
2021/03/04 04:05:32;;;;;;;28.05;12.57;;;8.20;99.90;;;;;;6657806;77;20326;-75
2021/03/04 04:15:33;;;;;;;29.80;13.70;;;8.20;99.90;;;;;;6685116;88;20188;-74
2021/03/04 04:25:42;;;;;;;32.45;13.52;;;8.20;99.90;;;;;;6684225;88;20721;-73
2021/03/04 04:35:42;;;;;;;28.35;13.15;;;8.00;99.90;;;;;;6690648;88;20323;-75
2021/03/04 04:45:43;;;;;;;31.27;13.48;;;7.90;99.90;;;;;;6686929;88;20187;-75
2021/03/04 04:55:44;;;;;;;35.47;14.70;;;7.80;99.90;;;;;;6698564;88;20624;-73
2021/03/04 05:05:44;;;;;;;34.58;14.93;;;7.90;99.90;;;;;;6680364;88;20273;-75
2021/03/04 05:15:45;;;;;;;36.60;15.07;;;7.60;99.90;;;;;;6685359;88;20187;-75
2021/03/04 05:25:45;;;;;;;36.15;15.57;;;7.60;99.90;;;;;;6680539;88;20686;-76
2021/03/04 05:35:46;;;;;;;33.22;15.32;;;7.40;99.90;;;;;;6681496;88;20647;-76
2021/03/04 05:45:49;;;;;;;43.72;16.67;;;7.30;99.90;;;;;;6687177;88;20207;-75
2021/03/04 05:55:50;;;;;;;36.67;15.23;;;7.20;99.90;;;;;;6681939;88;20233;-75
2021/03/04 06:05:51;;;;;;;38.90;15.98;;;7.30;99.90;;;;;;6683217;88;20286;-76
2021/03/04 06:15:53;;;;;;;37.88;16.02;;;7.30;99.90;;;;;;6681980;88;20218;-74
2021/03/04 06:25:53;;;;;;;40.45;15.93;;;7.30;99.90;;;;;;6682237;88;20219;-75
2021/03/04 06:35:53;;;;;;;45.35;18.80;;;7.40;99.90;;;;;;6677374;88;21079;-73
2021/03/04 06:46:05;;;;;;;40.22;16.77;;;7.40;99.90;;;;;;6672407;89;20331;-74
2021/03/04 06:56:05;;;;;;;40.88;17.40;;;7.90;99.90;;;;;;6676906;89;20171;-75
2021/03/04 07:06:08;;;;;;;38.38;16.35;;;7.90;99.90;;;;;;6683441;88;20231;-75
2021/03/04 07:16:16;;;;;;;38.45;15.95;;;7.80;99.90;;;;;;6682590;88;20219;-75
2021/03/04 07:26:17;;;;;;;47.67;19.48;;;8.20;99.90;;;;;;6684795;88;20250;-75
2021/03/04 07:36:22;;;;;;;47.40;21.33;;;8.00;99.90;;;;;;6680613;88;20172;-75
2021/03/04 07:46:32;;;;;;;46.83;19.70;;;7.90;99.90;;;;;;6685098;88;20792;-74
2021/03/04 07:56:32;;;;;;;50.50;20.08;;;8.10;99.90;;;;;;6684495;88;20198;-75
2021/03/04 08:06:43;;;;;;;47.90;19.95;;;8.40;99.90;;;;;;6676758;88;20228;-75
2021/03/04 08:16:54;;;;;;;42.50;18.85;;;8.30;99.90;;;;;;6679926;88;20742;-76
2021/03/04 08:26:58;;;;;;;37.72;18.30;;;8.40;99.90;;;;;;6676155;88;20249;-76
2021/03/04 08:36:59;;;;;;;43.50;18.50;;;8.50;99.90;;;;;;6676162;88;20822;-76
2021/03/04 08:47:00;;;;;;;40.70;19.37;;;8.60;99.90;;;;;;6667383;88;20224;-76
2021/03/04 08:57:04;;;;;;;47.47;22.77;;;9.00;99.90;;;;;;6677166;88;20640;-76
2021/03/04 09:07:05;;;;;;;50.45;25.67;;;8.80;99.90;;;;;;6677259;88;20705;-75
2021/03/04 09:17:08;;;;;;;45.25;22.95;;;8.90;99.90;;;;;;6674515;88;20194;-76
2021/03/04 09:27:11;;;;;;;42.40;22.95;;;9.10;99.90;;;;;;6673717;88;20667;-75
2021/03/04 09:37:31;;;;;;;44.58;23.60;;;9.20;99.90;;;;;;6682105;88;20196;-75
2021/03/04 09:47:33;;;;;;;46.47;23.83;;;9.40;99.90;;;;;;6675255;88;20701;-76
2021/03/04 09:57:37;;;;;;;42.22;23.70;;;9.50;99.90;;;;;;6675965;88;20188;-76
2021/03/04 10:07:37;;;;;;;38.58;21.37;;;10.00;99.90;;;;;;6678584;88;20198;-76
2021/03/04 10:17:41;;;;;;;35.30;20.70;;;10.30;99.90;;;;;;6676930;88;21133;-76
2021/03/04 10:27:41;;;;;;;27.85;14.43;;;10.80;99.90;;;;;;6677012;88;20347;-76
2021/03/04 10:37:43;;;;;;;27.85;15.52;;;12.10;99.90;;;;;;6682224;88;20214;-76
2021/03/04 10:47:45;;;;;;;21.98;13.48;;;11.70;99.90;;;;;;6679778;88;20202;-76
2021/03/04 10:57:46;;;;;;;23.58;13.20;;;12.20;99.90;;;;;;6681882;88;20296;-76
2021/03/04 11:07:46;;;;;;;30.48;16.10;;;12.10;99.90;;;;;;6686869;88;20192;-76
2021/03/04 11:17:47;;;;;;;38.75;19.62;;;12.30;99.90;;;;;;6677345;88;20716;-77
2021/03/04 11:27:47;;;;;;;49.15;24.33;;;12.00;99.90;;;;;;6690639;88;20212;-76
2021/03/04 11:37:48;;;;;;;45.72;23.42;;;12.20;99.90;;;;;;6678286;88;20311;-77
2021/03/04 11:47:48;;;;;;;61.80;29.08;;;12.50;99.90;;;;;;6690828;88;20198;-77
2021/03/04 11:57:49;;;;;;;55.38;26.37;;;11.80;99.90;;;;;;6685586;88;20737;-76
2021/03/04 12:07:49;;;;;;;51.83;25.42;;;12.00;99.90;;;;;;6680852;88;20678;-74
2021/03/04 12:17:50;;;;;;;41.83;21.23;;;12.10;99.90;;;;;;6684820;88;20708;-75
2021/03/04 12:27:50;;;;;;;35.47;18.17;;;12.00;99.90;;;;;;6678988;88;20217;-75
2021/03/04 12:37:51;;;;;;;33.97;18.05;;;11.70;99.90;;;;;;6674875;88;20172;-75
2021/03/04 12:47:51;;;;;;;36.90;19.05;;;11.60;99.90;;;;;;6681751;88;20238;-76
2021/03/04 12:57:52;;;;;;;32.95;16.62;;;11.60;99.90;;;;;;6683247;88;20187;-75
2021/03/04 13:07:52;;;;;;;36.22;18.30;;;11.60;99.90;;;;;;6681772;88;20293;-75
2021/03/04 13:17:53;;;;;;;36.53;19.35;;;11.40;99.90;;;;;;6682084;88;20225;-75
2021/03/04 13:27:54;;;;;;;39.08;18.77;;;10.90;99.90;;;;;;6687229;88;20207;-75
2021/03/04 13:37:54;;;;;;;34.22;16.35;;;10.80;99.90;;;;;;6680668;88;20199;-76
2021/03/04 13:47:55;;;;;;;51.53;23.67;;;10.50;99.90;;;;;;6680184;88;20327;-75
2021/03/04 13:57:56;;;;;;;83.72;33.95;;;10.20;99.90;;;;;;6685239;88;20198;-76
2021/03/04 14:07:56;;;;;;;62.20;24.90;;;9.90;99.90;;;;;;6681847;88;21026;-76
2021/03/04 14:17:57;;;;;;;51.67;21.70;;;9.40;99.90;;;;;;6685500;88;20296;-75
2021/03/04 14:27:57;;;;;;;45.28;20.73;;;8.90;99.90;;;;;;6689780;88;20336;-75
2021/03/04 14:37:58;;;;;;;52.05;23.20;;;8.60;99.90;;;;;;6679073;88;20200;-75
2021/03/04 14:47:59;;;;;;;47.72;21.60;;;8.20;99.90;;;;;;6680246;88;20174;-74
2021/03/04 14:57:59;;;;;;;20.37;10.45;;;8.00;99.90;;;;;;6683589;88;20274;-75
2021/03/04 15:08:00;;;;;;;24.98;12.65;;;7.40;99.90;;;;;;6683942;88;20630;-75
2021/03/04 15:18:00;;;;;;;22.48;10.43;;;6.60;99.90;;;;;;6689553;88;20638;-74
2021/03/04 15:28:01;;;;;;;33.28;13.02;;;6.20;99.90;;;;;;6682665;88;20208;-74
2021/03/04 15:38:01;;;;;;;29.77;12.05;;;5.90;99.90;;;;;;6678406;88;20492;-75
2021/03/04 15:48:02;;;;;;;19.02;8.73;;;5.90;99.90;;;;;;6679661;88;20204;-74
2021/03/04 15:58:03;;;;;;;20.20;8.52;;;5.60;99.90;;;;;;6679106;88;20340;-73
2021/03/04 16:08:04;;;;;;;22.17;8.20;;;5.30;99.90;;;;;;6682596;88;20202;-73
2021/03/04 16:18:05;;;;;;;17.85;7.07;;;5.20;99.90;;;;;;6689109;88;20199;-74
2021/03/04 16:28:06;;;;;;;10.35;3.92;;;5.00;99.90;;;;;;6678333;88;20648;-74
2021/03/04 16:38:09;;;;;;;23.62;7.78;;;4.90;99.90;;;;;;6675039;88;20308;-73
2021/03/04 16:48:10;;;;;;;32.25;10.32;;;4.70;99.90;;;;;;6674804;88;20699;-74
2021/03/04 16:58:11;;;;;;;19.50;6.72;;;4.70;99.90;;;;;;6680931;88;20336;-74
2021/03/04 17:08:11;;;;;;;11.35;3.95;;;4.50;99.90;;;;;;6684713;88;20202;-74
2021/03/04 17:18:15;;;;;;;13.68;4.15;;;4.30;99.90;;;;;;6680297;88;20510;-74
2021/03/04 17:28:18;;;;;;;13.40;5.95;;;4.20;99.90;;;;;;6678039;88;20189;-74
2021/03/04 17:38:19;;;;;;;13.27;5.30;;;4.00;99.90;;;;;;6679208;88;21185;-75
2021/03/04 17:48:19;;;;;;;15.27;5.03;;;4.00;99.90;;;;;;6676020;88;20205;-74
2021/03/04 17:58:20;;;;;;;15.52;5.80;;;3.80;99.90;;;;;;6677947;88;20195;-73
2021/03/04 18:08:21;;;;;;;14.25;5.35;;;3.90;99.90;;;;;;6677139;88;20203;-75
2021/03/04 18:18:22;;;;;;;16.42;7.30;;;4.00;99.90;;;;;;6681436;88;20778;-74
2021/03/04 18:28:22;;;;;;;16.62;6.65;;;3.90;99.90;;;;;;6679818;88;20287;-74
2021/03/04 18:38:23;;;;;;;20.35;7.03;;;3.80;99.90;;;;;;6673193;88;20195;-74
2021/03/04 18:48:25;;;;;;;25.48;8.55;;;4.00;99.90;;;;;;6675033;88;20718;-74
2021/03/04 18:58:26;;;;;;;24.55;9.45;;;4.00;99.90;;;;;;6692329;88;20718;-75
2021/03/04 19:08:27;;;;;;;34.95;11.55;;;4.00;99.90;;;;;;6695915;88;20219;-75
2021/03/04 19:18:27;;;;;;;36.08;13.30;;;4.10;99.90;;;;;;6706376;88;20183;-75
2021/03/04 19:28:28;;;;;;;33.30;12.93;;;4.30;99.90;;;;;;6693165;88;20355;-75
2021/03/04 19:38:28;;;;;;;38.78;13.77;;;4.30;99.90;;;;;;6684437;88;20618;-78
2021/03/04 19:48:29;;;;;;;44.03;15.03;;;4.40;99.90;;;;;;6690752;88;20212;-75
2021/03/04 19:58:29;;;;;;;51.17;16.58;;;4.20;99.90;;;;;;6692617;88;20548;-75
2021/03/04 20:09:11;;;;;;;41.42;13.55;;;4.30;99.90;;;;;;6687105;77;20198;-76
2021/03/04 20:19:12;;;;;;;62.75;19.23;;;4.30;99.90;;;;;;6682136;88;20286;-75
2021/03/04 20:29:13;;;;;;;57.80;17.02;;;4.20;99.90;;;;;;6652487;89;20763;-78
2021/03/04 20:39:15;;;;;;;66.30;18.73;;;4.00;99.90;;;;;;6653147;89;20339;-77
2021/03/04 20:49:16;;;;;;;49.70;16.75;;;4.00;99.90;;;;;;6653696;89;20233;-77
2021/03/04 20:59:17;;;;;;;43.17;16.23;;;4.10;99.90;;;;;;6649899;89;20267;-77
2021/03/04 21:09:17;;;;;;;44.65;15.45;;;4.10;99.90;;;;;;6653072;89;20212;-76
2021/03/04 21:19:18;;;;;;;46.88;15.73;;;4.20;99.90;;;;;;6651935;89;20183;-76
2021/03/04 21:29:18;;;;;;;41.40;15.65;;;4.30;99.90;;;;;;6652269;89;20246;-76
2021/03/04 21:39:19;;;;;;;49.47;18.30;;;4.20;99.90;;;;;;6652437;89;20200;-76
2021/03/04 21:49:20;;;;;;;54.55;17.58;;;4.20;99.90;;;;;;6651391;89;20212;-76
2021/03/04 21:59:21;;;;;;;55.80;17.95;;;4.30;99.90;;;;;;6656281;89;20768;-77
2021/03/04 22:09:21;;;;;;;58.90;20.10;;;4.20;99.90;;;;;;6656830;89;20270;-76
2021/03/04 22:19:22;;;;;;;53.22;20.37;;;4.20;99.90;;;;;;6661787;89;20180;-76
2021/03/04 22:29:23;;;;;;;61.55;21.45;;;4.20;99.90;;;;;;6656616;89;20348;-77
2021/03/04 22:39:23;;;;;;;53.67;21.40;;;4.30;99.90;;;;;;6652286;89;20192;-76
2021/03/04 22:49:24;;;;;;;42.40;17.83;;;4.40;99.90;;;;;;6652133;89;20231;-77
2021/03/04 22:59:25;;;;;;;43.22;17.10;;;4.50;99.90;;;;;;6651127;89;20553;-75
2021/03/04 23:09:25;;;;;;;42.95;17.27;;;4.50;99.90;;;;;;6652563;89;20282;-77
2021/03/04 23:19:26;;;;;;;47.25;18.65;;;4.40;99.90;;;;;;6653228;89;20524;-76
2021/03/04 23:29:26;;;;;;;36.97;15.40;;;4.40;99.90;;;;;;6653015;89;20221;-77
2021/03/04 23:39:27;;;;;;;37.70;14.38;;;4.40;99.90;;;;;;6650633;89;20296;-77
2021/03/04 23:49:28;;;;;;;34.50;12.23;;;4.40;99.90;;;;;;6653383;89;20600;-77
2021/03/04 23:59:30;;;;;;;26.40;9.27;;;4.30;99.90;;;;;;6655862;89;20353;-76
